sensor_id;sensor_type;location;lat;lon;timestamp;P1;durP1;ratioP1;P2;durP2;ratioP2
60610;SDS011;46439;51.164;13.572;2023-02-26T00:01:31;3.40;;;1.50;;
60610;SDS011;46439;51.164;13.572;2023-02-26T00:04:01;1.10;;;1.00;;
60610;SDS011;46439;51.164;13.572;2023-02-26T00:06:33;2.80;;;1.40;;
60610;SDS011;46439;51.164;13.572;2023-02-26T00:09:03;2.10;;;1.10;;
60610;SDS011;46439;51.164;13.572;2023-02-26T00:11:33;1.60;;;1.10;;
60610;SDS011;46439;51.164;13.572;2023-02-26T00:14:03;2.30;;;1.10;;
60610;SDS011;46439;51.164;13.572;2023-02-26T00:16:32;5.00;;;1.50;;
60610;SDS011;46439;51.164;13.572;2023-02-26T00:19:04;2.20;;;1.30;;
60610;SDS011;46439;51.164;13.572;2023-02-26T00:21:41;3.70;;;1.30;;
60610;SDS011;46439;51.164;13.572;2023-02-26T00:24:10;1.30;;;1.00;;
60610;SDS011;46439;51.164;13.572;2023-02-26T00:26:38;2.60;;;1.20;;
60610;SDS011;46439;51.164;13.572;2023-02-26T00:29:08;2.50;;;1.20;;
60610;SDS011;46439;51.164;13.572;2023-02-26T00:31:38;2.30;;;1.30;;
60610;SDS011;46439;51.164;13.572;2023-02-26T00:34:09;1.90;;;1.20;;
60610;SDS011;46439;51.164;13.572;2023-02-26T00:36:39;2.50;;;1.20;;
60610;SDS011;46439;51.164;13.572;2023-02-26T00:39:14;1.60;;;1.20;;
60610;SDS011;46439;51.164;13.572;2023-02-26T00:41:59;2.60;;;1.30;;
60610;SDS011;46439;51.164;13.572;2023-02-26T00:44:29;1.60;;;1.10;;
60610;SDS011;46439;51.164;13.572;2023-02-26T00:46:59;2.50;;;1.30;;
60610;SDS011;46439;51.164;13.572;2023-02-26T00:49:38;1.70;;;1.10;;
60610;SDS011;46439;51.164;13.572;2023-02-26T00:52:17;1.40;;;1.20;;
60610;SDS011;46439;51.164;13.572;2023-02-26T00:54:53;2.40;;;1.10;;
60610;SDS011;46439;51.164;13.572;2023-02-26T00:57:21;1.30;;;1.20;;
60610;SDS011;46439;51.164;13.572;2023-02-26T00:59:50;3.30;;;1.20;;
60610;SDS011;46439;51.164;13.572;2023-02-26T01:02:18;2.60;;;1.40;;
60610;SDS011;46439;51.164;13.572;2023-02-26T01:04:48;1.40;;;1.20;;
60610;SDS011;46439;51.164;13.572;2023-02-26T01:07:18;1.40;;;1.30;;
60610;SDS011;46439;51.164;13.572;2023-02-26T01:12:18;1.40;;;1.30;;
60610;SDS011;46439;51.164;13.572;2023-02-26T01:14:48;3.70;;;1.60;;
60610;SDS011;46439;51.164;13.572;2023-02-26T01:17:20;2.70;;;1.60;;
60610;SDS011;46439;51.164;13.572;2023-02-26T01:19:56;1.60;;;1.40;;
60610;SDS011;46439;51.164;13.572;2023-02-26T01:22:32;1.50;;;1.40;;
60610;SDS011;46439;51.164;13.572;2023-02-26T01:25:06;2.40;;;1.40;;
60610;SDS011;46439;51.164;13.572;2023-02-26T01:27:37;2.30;;;1.30;;
60610;SDS011;46439;51.164;13.572;2023-02-26T01:30:07;1.50;;;1.30;;
60610;SDS011;46439;51.164;13.572;2023-02-26T01:32:41;1.50;;;1.40;;
60610;SDS011;46439;51.164;13.572;2023-02-26T01:35:16;3.90;;;1.70;;
60610;SDS011;46439;51.164;13.572;2023-02-26T01:37:59;1.50;;;1.40;;
60610;SDS011;46439;51.164;13.572;2023-02-26T01:40:50;1.90;;;1.40;;
60610;SDS011;46439;51.164;13.572;2023-02-26T01:43:45;2.20;;;1.30;;
60610;SDS011;46439;51.164;13.572;2023-02-26T01:46:27;1.80;;;1.20;;
60610;SDS011;46439;51.164;13.572;2023-02-26T01:49:00;1.50;;;1.40;;
60610;SDS011;46439;51.164;13.572;2023-02-26T01:51:41;2.10;;;1.40;;
60610;SDS011;46439;51.164;13.572;2023-02-26T01:54:11;3.80;;;1.40;;
60610;SDS011;46439;51.164;13.572;2023-02-26T01:56:41;4.20;;;1.40;;
60610;SDS011;46439;51.164;13.572;2023-02-26T01:59:13;3.60;;;1.60;;
60610;SDS011;46439;51.164;13.572;2023-02-26T02:01:49;2.70;;;1.30;;
60610;SDS011;46439;51.164;13.572;2023-02-26T02:04:20;4.10;;;1.60;;
60610;SDS011;46439;51.164;13.572;2023-02-26T02:06:50;2.40;;;1.50;;
60610;SDS011;46439;51.164;13.572;2023-02-26T02:09:19;2.90;;;1.50;;
60610;SDS011;46439;51.164;13.572;2023-02-26T02:11:51;1.80;;;1.60;;
60610;SDS011;46439;51.164;13.572;2023-02-26T02:14:35;1.60;;;1.50;;
60610;SDS011;46439;51.164;13.572;2023-02-26T02:17:21;2.20;;;1.50;;
60610;SDS011;46439;51.164;13.572;2023-02-26T02:20:12;1.80;;;1.60;;
60610;SDS011;46439;51.164;13.572;2023-02-26T02:23:20;4.50;;;1.80;;
60610;SDS011;46439;51.164;13.572;2023-02-26T02:32:12;1.70;;;1.60;;
60610;SDS011;46439;51.164;13.572;2023-02-26T02:34:45;4.20;;;1.70;;
60610;SDS011;46439;51.164;13.572;2023-02-26T02:37:19;2.70;;;1.70;;
60610;SDS011;46439;51.164;13.572;2023-02-26T02:39:51;1.40;;;1.30;;
60610;SDS011;46439;51.164;13.572;2023-02-26T02:42:25;2.80;;;1.90;;
60610;SDS011;46439;51.164;13.572;2023-02-26T02:44:57;4.80;;;1.70;;
60610;SDS011;46439;51.164;13.572;2023-02-26T02:47:31;3.20;;;1.60;;
60610;SDS011;46439;51.164;13.572;2023-02-26T02:50:06;2.30;;;1.60;;
60610;SDS011;46439;51.164;13.572;2023-02-26T02:52:40;5.50;;;1.90;;
60610;SDS011;46439;51.164;13.572;2023-02-26T02:55:12;4.10;;;1.70;;
60610;SDS011;46439;51.164;13.572;2023-02-26T02:57:47;3.90;;;1.80;;
60610;SDS011;46439;51.164;13.572;2023-02-26T03:00:20;3.10;;;1.60;;
60610;SDS011;46439;51.164;13.572;2023-02-26T03:02:50;3.00;;;1.80;;
60610;SDS011;46439;51.164;13.572;2023-02-26T03:05:25;2.90;;;1.70;;
60610;SDS011;46439;51.164;13.572;2023-02-26T03:07:54;2.40;;;1.80;;
60610;SDS011;46439;51.164;13.572;2023-02-26T03:10:27;1.80;;;1.70;;
60610;SDS011;46439;51.164;13.572;2023-02-26T03:12:56;2.20;;;1.50;;
60610;SDS011;46439;51.164;13.572;2023-02-26T03:15:28;1.80;;;1.70;;
60610;SDS011;46439;51.164;13.572;2023-02-26T03:18:05;2.90;;;1.40;;
60610;SDS011;46439;51.164;13.572;2023-02-26T03:20:45;2.70;;;1.80;;
60610;SDS011;46439;51.164;13.572;2023-02-26T03:23:26;2.30;;;1.70;;
60610;SDS011;46439;51.164;13.572;2023-02-26T03:25:59;2.10;;;1.60;;
60610;SDS011;46439;51.164;13.572;2023-02-26T03:28:37;2.00;;;1.60;;
60610;SDS011;46439;51.164;13.572;2023-02-26T03:31:12;2.40;;;1.70;;
60610;SDS011;46439;51.164;13.572;2023-02-26T03:33:46;2.80;;;1.80;;
60610;SDS011;46439;51.164;13.572;2023-02-26T03:36:22;2.30;;;1.80;;
60610;SDS011;46439;51.164;13.572;2023-02-26T03:38:56;1.40;;;1.30;;
60610;SDS011;46439;51.164;13.572;2023-02-26T03:41:29;2.00;;;1.70;;
60610;SDS011;46439;51.164;13.572;2023-02-26T03:44:04;2.60;;;1.40;;
60610;SDS011;46439;51.164;13.572;2023-02-26T03:46:40;2.20;;;1.60;;
60610;SDS011;46439;51.164;13.572;2023-02-26T03:49:11;1.90;;;1.70;;
60610;SDS011;46439;51.164;13.572;2023-02-26T03:51:45;2.90;;;1.90;;
60610;SDS011;46439;51.164;13.572;2023-02-26T03:54:17;3.60;;;1.90;;
60610;SDS011;46439;51.164;13.572;2023-02-26T03:56:48;2.70;;;1.60;;
60610;SDS011;46439;51.164;13.572;2023-02-26T03:59:17;3.30;;;1.90;;
60610;SDS011;46439;51.164;13.572;2023-02-26T04:01:47;2.30;;;1.60;;
60610;SDS011;46439;51.164;13.572;2023-02-26T04:04:22;2.30;;;1.70;;
60610;SDS011;46439;51.164;13.572;2023-02-26T04:06:54;2.50;;;1.80;;
60610;SDS011;46439;51.164;13.572;2023-02-26T04:09:22;2.00;;;1.70;;
60610;SDS011;46439;51.164;13.572;2023-02-26T04:11:52;3.10;;;2.00;;
60610;SDS011;46439;51.164;13.572;2023-02-26T04:14:22;3.60;;;1.70;;
60610;SDS011;46439;51.164;13.572;2023-02-26T04:16:50;1.70;;;1.60;;
60610;SDS011;46439;51.164;13.572;2023-02-26T04:19:19;2.70;;;1.90;;
60610;SDS011;46439;51.164;13.572;2023-02-26T04:21:47;3.00;;;1.70;;
60610;SDS011;46439;51.164;13.572;2023-02-26T04:24:16;3.10;;;2.00;;
60610;SDS011;46439;51.164;13.572;2023-02-26T04:26:45;2.90;;;2.00;;
60610;SDS011;46439;51.164;13.572;2023-02-26T04:29:13;3.90;;;2.00;;
60610;SDS011;46439;51.164;13.572;2023-02-26T04:31:42;2.50;;;2.00;;
60610;SDS011;46439;51.164;13.572;2023-02-26T04:34:11;4.00;;;2.10;;
60610;SDS011;46439;51.164;13.572;2023-02-26T04:36:39;6.10;;;2.10;;
60610;SDS011;46439;51.164;13.572;2023-02-26T04:39:08;2.90;;;2.20;;
60610;SDS011;46439;51.164;13.572;2023-02-26T04:41:36;3.00;;;1.90;;
60610;SDS011;46439;51.164;13.572;2023-02-26T04:44:05;5.30;;;2.30;;
60610;SDS011;46439;51.164;13.572;2023-02-26T04:46:34;2.90;;;1.80;;
60610;SDS011;46439;51.164;13.572;2023-02-26T04:49:02;2.30;;;1.70;;
60610;SDS011;46439;51.164;13.572;2023-02-26T04:51:31;5.00;;;1.90;;
60610;SDS011;46439;51.164;13.572;2023-02-26T04:53:59;3.00;;;1.80;;
60610;SDS011;46439;51.164;13.572;2023-02-26T04:56:27;6.10;;;1.90;;
60610;SDS011;46439;51.164;13.572;2023-02-26T04:58:57;4.90;;;1.90;;
60610;SDS011;46439;51.164;13.572;2023-02-26T05:01:26;2.20;;;1.80;;
60610;SDS011;46439;51.164;13.572;2023-02-26T05:03:55;2.70;;;2.00;;
60610;SDS011;46439;51.164;13.572;2023-02-26T05:06:23;5.00;;;1.70;;
60610;SDS011;46439;51.164;13.572;2023-02-26T05:08:52;4.30;;;1.80;;
60610;SDS011;46439;51.164;13.572;2023-02-26T05:11:20;3.50;;;1.90;;
60610;SDS011;46439;51.164;13.572;2023-02-26T05:13:49;5.10;;;2.20;;
60610;SDS011;46439;51.164;13.572;2023-02-26T05:16:17;2.60;;;1.80;;
60610;SDS011;46439;51.164;13.572;2023-02-26T05:18:46;3.10;;;1.90;;
60610;SDS011;46439;51.164;13.572;2023-02-26T05:21:14;2.60;;;1.60;;
60610;SDS011;46439;51.164;13.572;2023-02-26T05:23:42;2.00;;;1.60;;
60610;SDS011;46439;51.164;13.572;2023-02-26T05:26:11;5.40;;;2.20;;
60610;SDS011;46439;51.164;13.572;2023-02-26T05:28:39;3.30;;;1.80;;
60610;SDS011;46439;51.164;13.572;2023-02-26T05:31:11;4.30;;;2.00;;
60610;SDS011;46439;51.164;13.572;2023-02-26T05:33:40;2.00;;;1.80;;
60610;SDS011;46439;51.164;13.572;2023-02-26T05:36:09;3.20;;;1.80;;
60610;SDS011;46439;51.164;13.572;2023-02-26T05:38:38;4.70;;;1.90;;
60610;SDS011;46439;51.164;13.572;2023-02-26T05:41:07;6.80;;;2.50;;
60610;SDS011;46439;51.164;13.572;2023-02-26T05:43:35;5.20;;;2.20;;
60610;SDS011;46439;51.164;13.572;2023-02-26T05:46:05;3.00;;;2.00;;
60610;SDS011;46439;51.164;13.572;2023-02-26T05:48:34;5.80;;;2.40;;
60610;SDS011;46439;51.164;13.572;2023-02-26T05:51:02;5.70;;;1.90;;
60610;SDS011;46439;51.164;13.572;2023-02-26T05:53:31;2.90;;;2.00;;
60610;SDS011;46439;51.164;13.572;2023-02-26T05:56:00;5.10;;;2.00;;
60610;SDS011;46439;51.164;13.572;2023-02-26T05:58:28;3.70;;;1.50;;
60610;SDS011;46439;51.164;13.572;2023-02-26T06:00:59;4.60;;;1.80;;
60610;SDS011;46439;51.164;13.572;2023-02-26T06:03:28;3.20;;;1.90;;
60610;SDS011;46439;51.164;13.572;2023-02-26T06:05:56;4.30;;;2.20;;
60610;SDS011;46439;51.164;13.572;2023-02-26T06:08:25;2.30;;;1.90;;
60610;SDS011;46439;51.164;13.572;2023-02-26T06:10:53;4.20;;;2.20;;
60610;SDS011;46439;51.164;13.572;2023-02-26T06:13:22;4.90;;;2.10;;
60610;SDS011;46439;51.164;13.572;2023-02-26T06:15:50;2.60;;;1.80;;
60610;SDS011;46439;51.164;13.572;2023-02-26T06:18:19;3.80;;;1.80;;
60610;SDS011;46439;51.164;13.572;2023-02-26T06:20:48;2.50;;;1.90;;
60610;SDS011;46439;51.164;13.572;2023-02-26T06:23:16;6.10;;;2.30;;
60610;SDS011;46439;51.164;13.572;2023-02-26T06:25:45;3.90;;;1.70;;
60610;SDS011;46439;51.164;13.572;2023-02-26T06:28:15;5.30;;;2.30;;
60610;SDS011;46439;51.164;13.572;2023-02-26T06:30:44;4.60;;;2.20;;
60610;SDS011;46439;51.164;13.572;2023-02-26T06:33:12;5.50;;;2.00;;
60610;SDS011;46439;51.164;13.572;2023-02-26T06:35:41;3.00;;;1.60;;
60610;SDS011;46439;51.164;13.572;2023-02-26T06:38:09;3.10;;;1.90;;
60610;SDS011;46439;51.164;13.572;2023-02-26T06:40:38;3.10;;;1.70;;
60610;SDS011;46439;51.164;13.572;2023-02-26T06:43:07;2.00;;;1.60;;
60610;SDS011;46439;51.164;13.572;2023-02-26T06:45:36;3.50;;;1.70;;
60610;SDS011;46439;51.164;13.572;2023-02-26T06:48:04;2.60;;;1.60;;
60610;SDS011;46439;51.164;13.572;2023-02-26T06:50:33;4.50;;;1.90;;
60610;SDS011;46439;51.164;13.572;2023-02-26T06:53:02;5.00;;;2.00;;
60610;SDS011;46439;51.164;13.572;2023-02-26T06:55:30;3.60;;;1.90;;
60610;SDS011;46439;51.164;13.572;2023-02-26T06:57:59;4.50;;;1.80;;
60610;SDS011;46439;51.164;13.572;2023-02-26T07:00:27;3.10;;;1.40;;
60610;SDS011;46439;51.164;13.572;2023-02-26T07:02:56;4.60;;;1.80;;
60610;SDS011;46439;51.164;13.572;2023-02-26T07:05:24;3.90;;;2.00;;
60610;SDS011;46439;51.164;13.572;2023-02-26T07:07:53;2.80;;;1.80;;
60610;SDS011;46439;51.164;13.572;2023-02-26T07:10:21;3.80;;;1.80;;
60610;SDS011;46439;51.164;13.572;2023-02-26T07:12:50;3.20;;;1.90;;
60610;SDS011;46439;51.164;13.572;2023-02-26T07:15:19;4.70;;;2.00;;
60610;SDS011;46439;51.164;13.572;2023-02-26T07:17:47;2.60;;;1.60;;
60610;SDS011;46439;51.164;13.572;2023-02-26T07:20:16;3.90;;;1.60;;
60610;SDS011;46439;51.164;13.572;2023-02-26T07:22:45;4.60;;;1.70;;
60610;SDS011;46439;51.164;13.572;2023-02-26T07:25:14;3.00;;;1.70;;
60610;SDS011;46439;51.164;13.572;2023-02-26T07:27:42;3.40;;;1.70;;
60610;SDS011;46439;51.164;13.572;2023-02-26T07:30:12;2.20;;;1.30;;
60610;SDS011;46439;51.164;13.572;2023-02-26T07:32:41;3.20;;;1.40;;
60610;SDS011;46439;51.164;13.572;2023-02-26T07:35:10;4.00;;;1.80;;
60610;SDS011;46439;51.164;13.572;2023-02-26T07:37:38;3.60;;;1.60;;
60610;SDS011;46439;51.164;13.572;2023-02-26T07:40:08;2.70;;;1.50;;
60610;SDS011;46439;51.164;13.572;2023-02-26T07:42:37;3.40;;;1.40;;
60610;SDS011;46439;51.164;13.572;2023-02-26T07:45:06;3.10;;;1.60;;
60610;SDS011;46439;51.164;13.572;2023-02-26T07:47:36;4.80;;;1.20;;
60610;SDS011;46439;51.164;13.572;2023-02-26T07:50:05;3.50;;;1.50;;
60610;SDS011;46439;51.164;13.572;2023-02-26T07:52:35;3.50;;;1.30;;
60610;SDS011;46439;51.164;13.572;2023-02-26T07:55:03;6.40;;;1.60;;
60610;SDS011;46439;51.164;13.572;2023-02-26T07:57:33;1.40;;;1.20;;
60610;SDS011;46439;51.164;13.572;2023-02-26T08:00:02;4.90;;;1.50;;
60610;SDS011;46439;51.164;13.572;2023-02-26T08:02:32;2.90;;;1.50;;
60610;SDS011;46439;51.164;13.572;2023-02-26T08:05:00;3.70;;;2.00;;
60610;SDS011;46439;51.164;13.572;2023-02-26T08:07:29;3.90;;;1.80;;
60610;SDS011;46439;51.164;13.572;2023-02-26T08:09:57;4.90;;;2.50;;
60610;SDS011;46439;51.164;13.572;2023-02-26T08:12:26;3.60;;;1.70;;
60610;SDS011;46439;51.164;13.572;2023-02-26T08:14:55;2.50;;;1.40;;
60610;SDS011;46439;51.164;13.572;2023-02-26T08:17:23;2.40;;;1.40;;
60610;SDS011;46439;51.164;13.572;2023-02-26T08:19:52;3.60;;;1.60;;
60610;SDS011;46439;51.164;13.572;2023-02-26T08:22:21;3.40;;;1.90;;
60610;SDS011;46439;51.164;13.572;2023-02-26T08:24:49;4.00;;;1.70;;
60610;SDS011;46439;51.164;13.572;2023-02-26T08:27:18;3.40;;;1.40;;
60610;SDS011;46439;51.164;13.572;2023-02-26T08:29:46;4.70;;;1.80;;
60610;SDS011;46439;51.164;13.572;2023-02-26T08:32:16;6.40;;;1.80;;
60610;SDS011;46439;51.164;13.572;2023-02-26T08:34:45;2.70;;;1.60;;
60610;SDS011;46439;51.164;13.572;2023-02-26T08:37:14;3.60;;;1.90;;
60610;SDS011;46439;51.164;13.572;2023-02-26T08:39:42;4.20;;;2.00;;
60610;SDS011;46439;51.164;13.572;2023-02-26T08:42:10;5.90;;;2.20;;
60610;SDS011;46439;51.164;13.572;2023-02-26T08:44:41;6.20;;;2.30;;
60610;SDS011;46439;51.164;13.572;2023-02-26T08:47:11;5.50;;;2.00;;
60610;SDS011;46439;51.164;13.572;2023-02-26T08:49:39;7.30;;;2.20;;
60610;SDS011;46439;51.164;13.572;2023-02-26T08:52:08;5.70;;;2.30;;
60610;SDS011;46439;51.164;13.572;2023-02-26T08:54:36;7.50;;;1.70;;
60610;SDS011;46439;51.164;13.572;2023-02-26T08:57:05;3.00;;;1.50;;
60610;SDS011;46439;51.164;13.572;2023-02-26T08:59:33;4.50;;;1.60;;
60610;SDS011;46439;51.164;13.572;2023-02-26T09:02:02;1.50;;;1.10;;
60610;SDS011;46439;51.164;13.572;2023-02-26T09:04:30;2.30;;;1.40;;
60610;SDS011;46439;51.164;13.572;2023-02-26T09:06:59;3.70;;;1.40;;
60610;SDS011;46439;51.164;13.572;2023-02-26T09:09:27;3.30;;;1.40;;
60610;SDS011;46439;51.164;13.572;2023-02-26T09:11:56;4.90;;;1.60;;
60610;SDS011;46439;51.164;13.572;2023-02-26T09:14:24;4.70;;;1.80;;
60610;SDS011;46439;51.164;13.572;2023-02-26T09:16:53;4.90;;;2.50;;
60610;SDS011;46439;51.164;13.572;2023-02-26T09:19:22;2.70;;;1.40;;
60610;SDS011;46439;51.164;13.572;2023-02-26T09:21:50;2.30;;;1.40;;
60610;SDS011;46439;51.164;13.572;2023-02-26T09:24:19;1.70;;;1.30;;
60610;SDS011;46439;51.164;13.572;2023-02-26T09:26:47;2.20;;;1.40;;
60610;SDS011;46439;51.164;13.572;2023-02-26T09:29:16;2.70;;;1.40;;
60610;SDS011;46439;51.164;13.572;2023-02-26T09:31:44;1.80;;;1.20;;
60610;SDS011;46439;51.164;13.572;2023-02-26T09:34:13;4.40;;;1.70;;
60610;SDS011;46439;51.164;13.572;2023-02-26T09:36:41;2.90;;;1.40;;
60610;SDS011;46439;51.164;13.572;2023-02-26T09:39:11;3.70;;;1.40;;
60610;SDS011;46439;51.164;13.572;2023-02-26T09:41:40;3.40;;;1.60;;
60610;SDS011;46439;51.164;13.572;2023-02-26T09:44:15;2.00;;;1.30;;
60610;SDS011;46439;51.164;13.572;2023-02-26T09:46:52;4.20;;;1.30;;
60610;SDS011;46439;51.164;13.572;2023-02-26T09:49:32;1.80;;;1.20;;
60610;SDS011;46439;51.164;13.572;2023-02-26T09:52:10;5.60;;;1.70;;
60610;SDS011;46439;51.164;13.572;2023-02-26T09:54:47;5.30;;;1.70;;
60610;SDS011;46439;51.164;13.572;2023-02-26T09:57:20;2.60;;;1.50;;
60610;SDS011;46439;51.164;13.572;2023-02-26T09:59:56;5.10;;;1.70;;
60610;SDS011;46439;51.164;13.572;2023-02-26T10:02:31;3.80;;;1.50;;
60610;SDS011;46439;51.164;13.572;2023-02-26T10:05:18;4.20;;;1.50;;
60610;SDS011;46439;51.164;13.572;2023-02-26T10:07:54;3.90;;;1.60;;
60610;SDS011;46439;51.164;13.572;2023-02-26T10:10:28;2.70;;;1.40;;
60610;SDS011;46439;51.164;13.572;2023-02-26T10:13:03;2.90;;;1.70;;
60610;SDS011;46439;51.164;13.572;2023-02-26T10:15:40;3.30;;;1.50;;
60610;SDS011;46439;51.164;13.572;2023-02-26T10:18:11;5.90;;;2.10;;
60610;SDS011;46439;51.164;13.572;2023-02-26T10:20:46;7.80;;;1.90;;
60610;SDS011;46439;51.164;13.572;2023-02-26T10:23:21;2.80;;;1.50;;
60610;SDS011;46439;51.164;13.572;2023-02-26T10:25:56;4.00;;;1.80;;
60610;SDS011;46439;51.164;13.572;2023-02-26T10:28:35;4.70;;;1.80;;
60610;SDS011;46439;51.164;13.572;2023-02-26T10:31:11;4.30;;;2.00;;
60610;SDS011;46439;51.164;13.572;2023-02-26T10:33:46;5.80;;;2.50;;
60610;SDS011;46439;51.164;13.572;2023-02-26T10:36:25;3.70;;;1.50;;
60610;SDS011;46439;51.164;13.572;2023-02-26T10:39:00;3.20;;;1.40;;
60610;SDS011;46439;51.164;13.572;2023-02-26T10:41:32;2.50;;;1.10;;
60610;SDS011;46439;51.164;13.572;2023-02-26T10:44:05;2.40;;;1.10;;
60610;SDS011;46439;51.164;13.572;2023-02-26T10:46:43;2.90;;;1.40;;
60610;SDS011;46439;51.164;13.572;2023-02-26T10:52:14;3.00;;;1.90;;
60610;SDS011;46439;51.164;13.572;2023-02-26T10:54:45;5.40;;;2.50;;
60610;SDS011;46439;51.164;13.572;2023-02-26T10:57:24;3.50;;;1.80;;
60610;SDS011;46439;51.164;13.572;2023-02-26T10:59:59;3.00;;;1.40;;
60610;SDS011;46439;51.164;13.572;2023-02-26T11:02:35;4.00;;;1.30;;
60610;SDS011;46439;51.164;13.572;2023-02-26T11:05:07;4.60;;;1.60;;
60610;SDS011;46439;51.164;13.572;2023-02-26T11:07:42;5.10;;;1.70;;
60610;SDS011;46439;51.164;13.572;2023-02-26T11:10:16;3.50;;;1.50;;
60610;SDS011;46439;51.164;13.572;2023-02-26T11:12:47;2.50;;;1.10;;
60610;SDS011;46439;51.164;13.572;2023-02-26T11:15:18;3.80;;;1.60;;
60610;SDS011;46439;51.164;13.572;2023-02-26T11:17:48;5.30;;;1.70;;
60610;SDS011;46439;51.164;13.572;2023-02-26T11:20:25;2.90;;;1.70;;
60610;SDS011;46439;51.164;13.572;2023-02-26T11:23:00;3.30;;;2.00;;
60610;SDS011;46439;51.164;13.572;2023-02-26T11:25:30;2.80;;;1.30;;
60610;SDS011;46439;51.164;13.572;2023-02-26T11:28:01;2.50;;;1.10;;
60610;SDS011;46439;51.164;13.572;2023-02-26T11:30:34;1.60;;;1.20;;
60610;SDS011;46439;51.164;13.572;2023-02-26T11:35:33;2.20;;;1.30;;
60610;SDS011;46439;51.164;13.572;2023-02-26T11:38:02;2.70;;;1.30;;
60610;SDS011;46439;51.164;13.572;2023-02-26T11:40:33;4.80;;;2.40;;
60610;SDS011;46439;51.164;13.572;2023-02-26T11:43:06;1.50;;;1.00;;
60610;SDS011;46439;51.164;13.572;2023-02-26T11:45:41;3.30;;;1.20;;
60610;SDS011;46439;51.164;13.572;2023-02-26T11:48:14;4.00;;;1.80;;
60610;SDS011;46439;51.164;13.572;2023-02-26T11:50:48;1.90;;;1.20;;
60610;SDS011;46439;51.164;13.572;2023-02-26T11:53:23;3.20;;;1.10;;
60610;SDS011;46439;51.164;13.572;2023-02-26T11:55:59;1.90;;;1.00;;
60610;SDS011;46439;51.164;13.572;2023-02-26T11:58:31;2.00;;;0.90;;
60610;SDS011;46439;51.164;13.572;2023-02-26T12:01:03;1.90;;;1.40;;
60610;SDS011;46439;51.164;13.572;2023-02-26T12:03:37;4.10;;;2.20;;
60610;SDS011;46439;51.164;13.572;2023-02-26T12:06:13;1.70;;;1.10;;
60610;SDS011;46439;51.164;13.572;2023-02-26T12:08:44;3.20;;;1.40;;
60610;SDS011;46439;51.164;13.572;2023-02-26T12:11:17;0.90;;;0.90;;
60610;SDS011;46439;51.164;13.572;2023-02-26T12:14:18;4.50;;;2.60;;
60610;SDS011;46439;51.164;13.572;2023-02-26T12:17:10;1.60;;;1.10;;
60610;SDS011;46439;51.164;13.572;2023-02-26T12:19:48;4.30;;;1.40;;
60610;SDS011;46439;51.164;13.572;2023-02-26T12:22:28;3.70;;;1.90;;
60610;SDS011;46439;51.164;13.572;2023-02-26T12:25:19;2.30;;;1.20;;
60610;SDS011;46439;51.164;13.572;2023-02-26T12:33:42;2.30;;;1.40;;
60610;SDS011;46439;51.164;13.572;2023-02-26T12:36:27;4.20;;;2.00;;
60610;SDS011;46439;51.164;13.572;2023-02-26T12:39:08;3.90;;;2.60;;
60610;SDS011;46439;51.164;13.572;2023-02-26T12:41:53;2.30;;;1.60;;
60610;SDS011;46439;51.164;13.572;2023-02-26T12:44:41;3.50;;;1.60;;
60610;SDS011;46439;51.164;13.572;2023-02-26T12:47:24;3.40;;;1.30;;
60610;SDS011;46439;51.164;13.572;2023-02-26T12:50:04;4.50;;;1.60;;
60610;SDS011;46439;51.164;13.572;2023-02-26T12:52:59;5.40;;;1.80;;
60610;SDS011;46439;51.164;13.572;2023-02-26T12:55:46;2.90;;;1.90;;
60610;SDS011;46439;51.164;13.572;2023-02-26T12:58:27;3.10;;;1.50;;
60610;SDS011;46439;51.164;13.572;2023-02-26T13:01:05;4.80;;;1.80;;
60610;SDS011;46439;51.164;13.572;2023-02-26T13:03:54;7.00;;;3.10;;
60610;SDS011;46439;51.164;13.572;2023-02-26T13:06:50;35.90;;;9.10;;
60610;SDS011;46439;51.164;13.572;2023-02-26T13:09:33;13.10;;;3.80;;
60610;SDS011;46439;51.164;13.572;2023-02-26T13:12:19;27.70;;;8.80;;
60610;SDS011;46439;51.164;13.572;2023-02-26T13:14:58;20.20;;;6.90;;
60610;SDS011;46439;51.164;13.572;2023-02-26T13:17:43;13.30;;;4.70;;
60610;SDS011;46439;51.164;13.572;2023-02-26T13:20:18;22.00;;;6.80;;
60610;SDS011;46439;51.164;13.572;2023-02-26T13:22:52;8.90;;;3.40;;
60610;SDS011;46439;51.164;13.572;2023-02-26T13:25:32;4.20;;;2.20;;
60610;SDS011;46439;51.164;13.572;2023-02-26T13:28:06;7.30;;;2.70;;
60610;SDS011;46439;51.164;13.572;2023-02-26T13:30:46;6.30;;;2.60;;
60610;SDS011;46439;51.164;13.572;2023-02-26T13:33:23;6.90;;;2.20;;
60610;SDS011;46439;51.164;13.572;2023-02-26T13:35:56;3.50;;;1.90;;
60610;SDS011;46439;51.164;13.572;2023-02-26T13:38:27;7.00;;;2.80;;
60610;SDS011;46439;51.164;13.572;2023-02-26T13:41:06;4.10;;;1.40;;
60610;SDS011;46439;51.164;13.572;2023-02-26T13:43:52;4.50;;;1.90;;
60610;SDS011;46439;51.164;13.572;2023-02-26T13:46:41;7.00;;;2.00;;
60610;SDS011;46439;51.164;13.572;2023-02-26T13:49:21;5.80;;;2.40;;
60610;SDS011;46439;51.164;13.572;2023-02-26T13:51:56;2.20;;;1.50;;
60610;SDS011;46439;51.164;13.572;2023-02-26T13:54:41;3.30;;;1.50;;
60610;SDS011;46439;51.164;13.572;2023-02-26T13:57:25;4.60;;;1.60;;
60610;SDS011;46439;51.164;13.572;2023-02-26T14:00:06;2.90;;;1.80;;
60610;SDS011;46439;51.164;13.572;2023-02-26T14:02:51;7.80;;;3.70;;
60610;SDS011;46439;51.164;13.572;2023-02-26T14:08:23;4.60;;;2.40;;
60610;SDS011;46439;51.164;13.572;2023-02-26T14:11:05;3.60;;;1.30;;
60610;SDS011;46439;51.164;13.572;2023-02-26T14:14:11;2.50;;;1.20;;
60610;SDS011;46439;51.164;13.572;2023-02-26T14:17:17;2.90;;;1.50;;
60610;SDS011;46439;51.164;13.572;2023-02-26T14:20:16;2.30;;;0.80;;
60610;SDS011;46439;51.164;13.572;2023-02-26T14:22:52;1.70;;;0.90;;
60610;SDS011;46439;51.164;13.572;2023-02-26T14:25:38;3.30;;;1.30;;
60610;SDS011;46439;51.164;13.572;2023-02-26T14:28:31;2.20;;;1.40;;
60610;SDS011;46439;51.164;13.572;2023-02-26T14:31:17;1.70;;;1.30;;
60610;SDS011;46439;51.164;13.572;2023-02-26T14:33:58;3.30;;;1.30;;
60610;SDS011;46439;51.164;13.572;2023-02-26T14:36:34;3.60;;;1.50;;
60610;SDS011;46439;51.164;13.572;2023-02-26T14:39:07;4.70;;;1.50;;
60610;SDS011;46439;51.164;13.572;2023-02-26T14:41:43;4.70;;;1.80;;
60610;SDS011;46439;51.164;13.572;2023-02-26T14:44:13;4.10;;;1.30;;
60610;SDS011;46439;51.164;13.572;2023-02-26T14:46:46;2.30;;;1.70;;
60610;SDS011;46439;51.164;13.572;2023-02-26T14:49:18;4.50;;;2.10;;
60610;SDS011;46439;51.164;13.572;2023-02-26T14:51:53;3.90;;;1.60;;
60610;SDS011;46439;51.164;13.572;2023-02-26T14:54:45;2.50;;;1.20;;
60610;SDS011;46439;51.164;13.572;2023-02-26T14:57:24;2.40;;;1.30;;
60610;SDS011;46439;51.164;13.572;2023-02-26T15:00:05;2.40;;;1.40;;
60610;SDS011;46439;51.164;13.572;2023-02-26T15:02:49;1.80;;;1.10;;
60610;SDS011;46439;51.164;13.572;2023-02-26T15:05:35;1.10;;;0.80;;
60610;SDS011;46439;51.164;13.572;2023-02-26T15:08:17;2.00;;;1.10;;
60610;SDS011;46439;51.164;13.572;2023-02-26T15:11:04;1.30;;;0.80;;
60610;SDS011;46439;51.164;13.572;2023-02-26T15:13:52;1.90;;;0.80;;
60610;SDS011;46439;51.164;13.572;2023-02-26T15:16:43;0.80;;;0.80;;
60610;SDS011;46439;51.164;13.572;2023-02-26T15:19:24;1.50;;;0.80;;
60610;SDS011;46439;51.164;13.572;2023-02-26T15:22:02;5.00;;;1.80;;
60610;SDS011;46439;51.164;13.572;2023-02-26T15:24:44;2.40;;;1.10;;
60610;SDS011;46439;51.164;13.572;2023-02-26T15:27:14;3.00;;;1.00;;
60610;SDS011;46439;51.164;13.572;2023-02-26T15:29:44;2.50;;;1.10;;
60610;SDS011;46439;51.164;13.572;2023-02-26T15:32:20;2.30;;;1.10;;
60610;SDS011;46439;51.164;13.572;2023-02-26T15:34:56;4.20;;;1.20;;